createdAt,value
2017-10-09T00:01:08.893Z,18.60
2017-10-09T00:04:35.588Z,18.60
2017-10-09T00:08:00.941Z,18.60
2017-10-09T00:11:26.698Z,18.60
2017-10-09T00:14:54.579Z,18.60
2017-10-09T00:18:20.466Z,18.60
2017-10-09T00:21:46.612Z,18.60
2017-10-09T00:25:14.248Z,18.50
2017-10-09T00:28:39.649Z,18.50
2017-10-09T00:32:05.560Z,18.60
2017-10-09T00:35:31.152Z,18.50
2017-10-09T00:38:56.817Z,18.50
2017-10-09T00:42:22.696Z,18.50
2017-10-09T00:45:48.705Z,18.50
2017-10-09T00:49:14.754Z,18.40
2017-10-09T00:52:40.614Z,18.40
2017-10-09T00:56:06.177Z,18.40
2017-10-09T00:59:33.232Z,18.40
2017-10-09T01:02:58.920Z,18.30
2017-10-09T01:06:27.018Z,18.30
2017-10-09T01:09:54.082Z,18.40
2017-10-09T01:13:19.858Z,18.40
2017-10-09T01:16:46.182Z,18.30
2017-10-09T01:20:12.670Z,18.20
2017-10-09T01:23:38.067Z,18.20
2017-10-09T01:27:03.715Z,18.20
2017-10-09T01:30:29.652Z,18.20
2017-10-09T01:33:55.101Z,18.20
2017-10-09T01:37:20.696Z,18.20
2017-10-09T01:40:46.737Z,18.20
2017-10-09T01:44:12.650Z,18.10
2017-10-09T01:47:38.347Z,18.10
2017-10-09T01:51:04.092Z,18.10
2017-10-09T01:54:29.450Z,18.10
2017-10-09T01:57:55.065Z,18.10
2017-10-09T02:01:21.656Z,18.10
2017-10-09T02:08:22.288Z,18.00
2017-10-09T02:11:49.916Z,18.10
2017-10-09T02:15:15.290Z,18.10
2017-10-09T02:18:40.728Z,18.00
2017-10-09T02:22:06.600Z,18.00
2017-10-09T02:25:32.113Z,18.00
2017-10-09T02:28:57.717Z,18.00
2017-10-09T02:32:23.857Z,18.00
2017-10-09T02:35:49.817Z,18.00
2017-10-09T02:39:16.940Z,18.00
2017-10-09T02:42:42.295Z,17.90
2017-10-09T02:46:07.757Z,17.90
2017-10-09T02:49:33.624Z,17.90
2017-10-09T02:52:58.797Z,17.90
2017-10-09T02:56:24.492Z,17.90
2017-10-09T02:59:50.333Z,17.90
2017-10-09T03:03:16.323Z,17.90
2017-10-09T03:06:42.455Z,17.90
2017-10-09T03:10:08.364Z,17.90
2017-10-09T03:13:33.874Z,17.90
2017-10-09T03:16:59.312Z,17.90
2017-10-09T03:20:25.537Z,17.90
2017-10-09T03:23:51.512Z,17.90
2017-10-09T03:27:16.898Z,17.90
2017-10-09T03:30:44.775Z,17.90
2017-10-09T03:34:10.824Z,17.90
2017-10-09T03:37:40.790Z,17.80
2017-10-09T03:41:06.180Z,17.80
2017-10-09T03:44:32.182Z,17.90
2017-10-09T03:47:58.785Z,17.80
2017-10-09T03:51:25.038Z,17.80
2017-10-09T03:54:50.619Z,17.80
2017-10-09T03:58:16.772Z,17.90
2017-10-09T04:01:42.064Z,17.90
2017-10-09T04:05:08.297Z,18.00
2017-10-09T04:08:34.153Z,18.40
2017-10-09T04:11:59.541Z,18.80
2017-10-09T04:15:24.926Z,19.00
2017-10-09T04:18:51.529Z,20.00
2017-10-09T04:22:17.149Z,20.00
2017-10-09T04:25:42.738Z,20.50
2017-10-09T04:29:08.517Z,21.00
2017-10-09T04:32:34.811Z,21.90
2017-10-09T04:36:00.232Z,21.90
2017-10-09T04:39:26.079Z,22.10
2017-10-09T04:42:51.477Z,22.30
2017-10-09T04:46:17.081Z,22.60
2017-10-09T04:49:42.940Z,22.80
2017-10-09T04:53:08.981Z,22.90
2017-10-09T04:56:34.585Z,23.10
2017-10-09T05:00:00.682Z,23.10
2017-10-09T05:03:34.497Z,23.10
2017-10-09T05:06:59.631Z,23.40
2017-10-09T05:10:25.121Z,23.40
2017-10-09T05:13:50.243Z,23.40
2017-10-09T05:17:15.696Z,23.50
2017-10-09T05:20:41.550Z,23.30
2017-10-09T05:24:11.590Z,23.30
2017-10-09T05:27:37.684Z,23.40
2017-10-09T05:31:03.190Z,23.40
2017-10-09T05:34:28.529Z,23.40
2017-10-09T05:37:54.285Z,23.40
2017-10-09T05:41:20.139Z,23.40
2017-10-09T05:44:53.840Z,23.40
2017-10-09T05:48:19.696Z,23.20
2017-10-09T05:51:44.793Z,23.20
2017-10-09T05:55:13.549Z,22.90
2017-10-09T05:58:42.780Z,22.80
2017-10-09T06:02:08.340Z,22.60
2017-10-09T06:05:34.218Z,22.40
2017-10-09T06:09:00.069Z,22.10
2017-10-09T06:12:25.587Z,22.10
2017-10-09T06:15:53.355Z,21.90
2017-10-09T06:19:18.480Z,21.80
2017-10-09T06:22:44.757Z,21.60
2017-10-09T06:47:35.018Z,20.80
2017-10-09T06:54:30.954Z,20.50
2017-10-09T06:57:56.136Z,20.50
2017-10-09T07:01:24.201Z,20.40
2017-10-09T07:04:49.918Z,20.30
2017-10-09T07:08:15.412Z,20.20
2017-10-09T07:11:41.246Z,20.00
2017-10-09T07:15:06.805Z,20.00
2017-10-09T07:18:32.641Z,19.90
2017-10-09T07:21:58.294Z,19.90
2017-10-09T07:25:25.209Z,19.80
2017-10-09T07:28:53.068Z,19.80
2017-10-09T07:32:18.785Z,19.70
2017-10-09T07:35:44.257Z,19.60
2017-10-09T07:39:11.878Z,19.60
2017-10-09T07:42:37.492Z,19.60
2017-10-09T07:46:04.082Z,19.50
2017-10-09T07:49:38.899Z,19.50
2017-10-09T07:53:07.667Z,19.40
2017-10-09T07:56:33.307Z,19.40
2017-10-09T07:59:59.395Z,19.40
2017-10-09T08:03:26.104Z,19.30
2017-10-09T08:07:08.179Z,19.30
2017-10-09T08:10:33.966Z,19.20
2017-10-09T08:13:59.945Z,19.20
2017-10-09T08:17:26.151Z,19.20
2017-10-09T08:20:52.598Z,19.10
2017-10-09T08:24:18.025Z,19.10
2017-10-09T08:27:54.662Z,19.10
2017-10-09T08:31:20.161Z,19.10
2017-10-09T08:34:46.377Z,19.10
2017-10-09T08:38:28.035Z,19.00
2017-10-09T08:41:54.325Z,19.00
2017-10-09T08:45:20.440Z,19.10
2017-10-09T09:02:51.461Z,19.00
2017-10-09T09:06:22.066Z,18.90
2017-10-09T09:09:48.832Z,18.90
2017-10-09T09:13:16.482Z,18.90
2017-10-09T09:20:16.377Z,18.90
2017-10-09T09:23:42.002Z,18.90
2017-10-09T09:27:09.145Z,19.00
2017-10-09T09:30:34.922Z,18.90
2017-10-09T09:34:00.083Z,18.90
2017-10-09T09:37:25.724Z,18.90
2017-10-09T09:40:53.880Z,18.90
2017-10-09T09:44:19.301Z,19.00
2017-10-09T09:47:46.093Z,19.00
2017-10-09T09:51:15.753Z,19.00
2017-10-09T09:54:41.587Z,19.00
2017-10-09T09:58:08.360Z,19.00
2017-10-09T10:01:35.769Z,19.30
2017-10-09T10:08:50.505Z,19.60
2017-10-09T10:12:17.848Z,20.00
2017-10-09T10:15:47.876Z,20.30
2017-10-09T10:19:13.929Z,20.80
2017-10-09T10:22:39.314Z,20.80
2017-10-09T10:26:05.953Z,21.10
2017-10-09T10:29:31.439Z,21.10
2017-10-09T10:32:57.037Z,21.30
2017-10-09T10:36:22.106Z,21.40
2017-10-09T10:39:49.341Z,21.80
2017-10-09T10:43:18.211Z,21.80
2017-10-09T10:46:44.303Z,21.90
2017-10-09T10:50:10.054Z,22.20
2017-10-09T10:57:11.613Z,22.70
2017-10-09T11:00:37.925Z,22.70
2017-10-09T11:04:07.569Z,22.70
2017-10-09T11:07:33.043Z,22.80
2017-10-09T11:11:34.705Z,23.20
2017-10-09T11:15:00.189Z,23.20
2017-10-09T11:18:27.059Z,23.40
2017-10-09T11:21:52.460Z,23.40
2017-10-09T11:25:18.088Z,23.60
2017-10-09T11:28:45.370Z,23.40
2017-10-09T11:32:10.928Z,23.60
2017-10-09T11:49:29.556Z,23.90
2017-10-09T11:52:55.498Z,23.70
2017-10-09T11:56:21.223Z,23.60
2017-10-09T11:59:51.582Z,23.80
2017-10-09T12:03:17.869Z,23.50
2017-10-09T12:06:43.254Z,23.50
2017-10-09T12:10:08.750Z,23.40
2017-10-09T12:13:38.302Z,23.60
2017-10-09T12:17:03.900Z,23.60
2017-10-09T12:20:30.129Z,23.40
2017-10-09T12:24:00.603Z,23.30
2017-10-09T12:27:25.970Z,23.30
2017-10-09T12:30:51.760Z,23.20
2017-10-09T12:34:22.550Z,23.00
2017-10-09T12:37:48.552Z,22.80
2017-10-09T12:41:13.979Z,22.80
2017-10-09T12:44:39.763Z,23.00
2017-10-09T12:48:04.896Z,23.00
2017-10-09T12:51:34.139Z,22.90
2017-10-09T12:55:01.509Z,22.80
2017-10-09T12:58:26.908Z,22.80
2017-10-09T13:01:52.509Z,22.90
2017-10-09T13:05:18.001Z,22.90
2017-10-09T13:08:44.096Z,22.70
2017-10-09T13:12:11.604Z,22.70
2017-10-09T13:19:11.220Z,22.70
2017-10-09T13:22:40.611Z,22.70
2017-10-09T13:26:07.692Z,22.50
2017-10-09T13:29:39.023Z,22.40
2017-10-09T13:33:07.925Z,22.40
2017-10-09T13:40:29.149Z,22.10
2017-10-09T13:44:00.491Z,22.30
2017-10-09T13:47:25.965Z,22.30
2017-10-09T13:50:51.932Z,22.20
2017-10-09T13:54:19.453Z,22.20
2017-10-09T13:57:45.632Z,22.10
2017-10-09T14:01:15.885Z,22.30
2017-10-09T14:04:41.085Z,22.30
2017-10-09T14:08:06.455Z,22.30
2017-10-09T14:11:38.210Z,22.30
2017-10-09T14:15:03.561Z,22.20
2017-10-09T14:18:33.318Z,22.00
2017-10-09T14:22:00.863Z,22.10
2017-10-09T14:25:34.797Z,22.20
2017-10-09T14:29:04.802Z,22.20
2017-10-09T14:43:02.325Z,23.00
2017-10-09T14:46:29.553Z,23.00
2017-10-09T14:49:56.641Z,23.20
2017-10-09T14:53:22.015Z,23.20
2017-10-09T14:56:48.502Z,23.40
2017-10-09T15:00:16.353Z,23.40
2017-10-09T15:03:42.499Z,23.60
2017-10-09T15:07:08.431Z,23.90
2017-10-09T15:10:38.423Z,23.90
2017-10-09T15:14:05.416Z,24.20
2017-10-09T15:17:30.893Z,24.10
2017-10-09T15:24:32.682Z,24.20
2017-10-09T15:28:09.168Z,24.20
2017-10-09T15:31:38.226Z,24.20
2017-10-09T15:35:03.905Z,24.20
2017-10-09T15:49:21.871Z,24.30
2017-10-09T15:52:51.707Z,24.30
2017-10-09T15:56:24.536Z,24.40
2017-10-09T15:59:50.478Z,24.40
2017-10-09T16:03:17.230Z,24.30
2017-10-09T16:06:42.668Z,24.30
2017-10-09T16:10:08.164Z,24.30
2017-10-09T16:13:38.661Z,24.50
2017-10-09T16:17:05.142Z,24.30
2017-10-09T16:20:30.795Z,24.20
2017-10-09T16:23:56.557Z,24.10
2017-10-09T16:27:22.460Z,24.00
2017-10-09T16:30:48.031Z,24.00
2017-10-09T16:34:15.720Z,23.80
2017-10-09T16:37:42.157Z,23.70
2017-10-09T16:41:08.015Z,23.50
2017-10-09T16:44:34.275Z,23.00
2017-10-09T16:48:00.286Z,22.80
2017-10-09T16:51:28.026Z,22.70
2017-10-09T16:54:53.339Z,22.70
2017-10-09T16:58:19.042Z,22.60
2017-10-09T17:01:45.235Z,22.40
2017-10-09T17:05:10.864Z,22.30
2017-10-09T17:08:36.624Z,22.10
2017-10-09T17:12:02.293Z,22.00
2017-10-09T17:15:28.450Z,21.90
2017-10-09T17:18:54.220Z,21.80
2017-10-09T17:22:19.917Z,21.80
2017-10-09T17:25:45.553Z,21.70
2017-10-09T17:29:12.363Z,21.60
2017-10-09T17:32:38.587Z,21.40
2017-10-09T17:36:04.540Z,21.40
2017-10-09T17:39:31.444Z,21.30
2017-10-09T17:43:01.791Z,21.30
2017-10-09T17:46:31.013Z,21.10
2017-10-09T17:49:56.935Z,21.10
2017-10-09T17:53:23.227Z,21.00
2017-10-09T17:56:51.686Z,21.00
2017-10-09T18:00:17.270Z,20.90
2017-10-09T18:03:42.776Z,20.90
2017-10-09T18:07:08.823Z,20.80
2017-10-09T18:10:34.118Z,20.80
2017-10-09T18:14:00.142Z,20.70
2017-10-09T18:17:25.779Z,20.60
2017-10-09T18:20:51.375Z,20.60
2017-10-09T18:24:17.226Z,20.50
2017-10-09T18:27:43.042Z,20.50
2017-10-09T18:31:08.614Z,20.40
2017-10-09T18:34:35.410Z,20.40
2017-10-09T18:38:01.008Z,20.30
2017-10-09T18:41:26.537Z,20.30
2017-10-09T18:44:52.300Z,20.30
2017-10-09T18:48:17.793Z,20.20
2017-10-09T18:51:43.812Z,20.20
2017-10-09T18:55:09.227Z,20.20
2017-10-09T18:58:34.852Z,20.10
2017-10-09T19:02:01.066Z,20.10
2017-10-09T19:05:26.889Z,20.20
2017-10-09T19:08:53.736Z,20.50
2017-10-09T19:12:19.949Z,20.60
2017-10-09T19:15:45.937Z,20.70
2017-10-09T19:19:12.612Z,21.10
2017-10-09T19:22:39.163Z,21.50
2017-10-09T19:26:06.335Z,21.70
2017-10-09T19:29:32.349Z,21.70
2017-10-09T19:32:58.201Z,21.80
2017-10-09T19:36:23.637Z,22.00
2017-10-09T19:39:52.783Z,22.20
2017-10-09T19:43:19.066Z,22.50
2017-10-09T19:46:48.838Z,22.50
2017-10-09T19:50:14.363Z,22.80
2017-10-09T19:53:40.155Z,22.80
2017-10-09T19:57:06.335Z,22.80
2017-10-09T20:00:33.035Z,23.20
2017-10-09T20:03:59.075Z,23.10
2017-10-09T20:07:24.605Z,23.20
2017-10-09T20:10:50.816Z,23.10
2017-10-09T20:14:17.567Z,23.10
2017-10-09T20:17:43.352Z,23.00
2017-10-09T20:21:09.062Z,23.00
2017-10-09T20:24:34.991Z,22.90
2017-10-09T20:28:00.560Z,22.80
2017-10-09T20:31:26.932Z,22.70
2017-10-09T20:34:53.989Z,22.40
2017-10-09T20:38:20.989Z,22.30
2017-10-09T20:41:46.826Z,22.30
2017-10-09T20:45:12.545Z,22.20
2017-10-09T20:48:37.986Z,22.10
2017-10-09T20:52:03.472Z,21.80
2017-10-09T20:55:34.628Z,21.70
2017-10-09T20:58:59.990Z,21.60
2017-10-09T21:02:25.539Z,21.50
2017-10-09T21:05:51.603Z,21.40
2017-10-09T21:09:17.274Z,21.30
2017-10-09T21:12:42.639Z,21.20
2017-10-09T21:16:08.611Z,21.10
2017-10-09T21:19:34.115Z,21.10
2017-10-09T21:22:59.567Z,20.90
2017-10-09T21:26:26.237Z,20.90
2017-10-09T21:29:51.673Z,20.80
2017-10-09T21:33:17.180Z,20.80
2017-10-09T21:36:43.065Z,20.70
2017-10-09T21:40:08.469Z,20.70
2017-10-09T21:43:34.888Z,20.60
2017-10-09T21:47:00.830Z,20.50
2017-10-09T21:50:26.507Z,20.50
2017-10-09T21:53:52.040Z,20.40
2017-10-09T21:57:17.402Z,20.30
2017-10-09T22:00:42.737Z,20.30
2017-10-09T22:04:08.646Z,20.20
2017-10-09T22:07:34.174Z,20.20
2017-10-09T22:10:59.962Z,20.10
2017-10-09T22:14:26.040Z,20.10
2017-10-09T22:17:51.486Z,20.00
2017-10-09T22:21:17.094Z,20.00
2017-10-09T22:24:42.989Z,20.00
2017-10-09T22:28:08.374Z,19.90
2017-10-09T22:31:33.663Z,19.90
2017-10-09T22:34:59.413Z,19.90
2017-10-09T22:38:24.845Z,19.90
2017-10-09T22:41:50.673Z,19.80
2017-10-09T22:45:16.449Z,19.80
2017-10-09T22:48:42.127Z,19.70
2017-10-09T22:52:07.575Z,19.70
2017-10-09T22:55:34.083Z,19.70
2017-10-09T22:59:01.044Z,19.70
2017-10-09T23:02:26.557Z,19.70
2017-10-09T23:05:53.709Z,19.60
2017-10-09T23:09:19.121Z,19.60
2017-10-09T23:12:50.064Z,19.60
2017-10-09T23:16:29.075Z,19.60
2017-10-09T23:19:54.437Z,19.50
2017-10-09T23:23:20.229Z,19.50
2017-10-09T23:26:45.657Z,19.50
2017-10-09T23:30:11.167Z,19.50
2017-10-09T23:33:37.129Z,19.50
2017-10-09T23:37:03.919Z,19.40
2017-10-09T23:40:29.549Z,19.40
2017-10-09T23:43:55.311Z,19.50
2017-10-09T23:47:21.958Z,19.40
2017-10-09T23:50:49.025Z,19.40
2017-10-09T23:54:16.550Z,19.40
2017-10-09T23:57:42.030Z,19.30
